Time;durP1;ratioP1;P1;durP2;ratioP2;P2;SDS_P1;SDS_P2;PMS_P1;PMS_P2;Temp;Humidity;BMP_temperature;BMP_pressure;BME280_temperature;BME280_humidity;BME280_pressure;Samples;Min_cycle;Max_cycle;Signal;HPM_P1;HPM_P2
2022/06/18 00:02:15;;;;;;;3.20;2.13;;;21.30;99.90;;;;;;5069937;28;20514;-79
2022/06/18 00:04:43;;;;;;;4.13;2.80;;;21.20;99.90;;;;;;5067252;28;20864;-79
2022/06/18 00:07:14;;;;;;;4.07;2.60;;;21.20;99.90;;;;;;5062334;28;20535;-77
2022/06/18 00:09:44;;;;;;;3.17;1.93;;;21.30;99.90;;;;;;5064260;28;20820;-77
2022/06/18 00:15:01;;;;;;;4.10;2.20;;;21.30;99.90;;;;;;5073202;28;20466;-78
2022/06/18 00:17:28;;;;;;;2.93;1.90;;;21.20;99.90;;;;;;5073137;28;20479;-78
2022/06/18 00:19:55;;;;;;;3.67;2.27;;;21.20;99.90;;;;;;5073172;28;20546;-78
2022/06/18 00:22:23;;;;;;;4.73;2.17;;;21.20;99.90;;;;;;5073010;28;20581;-78
2022/06/18 00:24:52;;;;;;;3.50;2.37;;;21.20;99.90;;;;;;5073336;28;20530;-77
2022/06/18 00:27:20;;;;;;;2.70;1.80;;;21.20;99.90;;;;;;5080264;28;20454;-76
2022/06/18 00:29:48;;;;;;;3.00;2.00;;;21.30;99.90;;;;;;5079446;28;20537;-79
2022/06/18 00:32:16;;;;;;;3.40;1.90;;;21.30;99.90;;;;;;5078476;28;20457;-79
2022/06/18 00:34:43;;;;;;;6.33;1.93;;;21.40;99.90;;;;;;5078061;28;20533;-78
2022/06/18 00:37:16;;;;;;;4.00;1.60;;;21.40;99.90;;;;;;5079108;28;20456;-79
2022/06/18 00:39:43;;;;;;;3.57;2.03;;;21.40;99.90;;;;;;5079251;28;20476;-77
2022/06/18 00:42:26;;;;;;;2.90;1.70;;;21.40;99.90;;;;;;5079392;28;20557;-79
2022/06/18 00:44:54;;;;;;;4.07;2.13;;;21.40;99.90;;;;;;5078504;28;20472;-77
2022/06/18 00:47:29;;;;;;;5.33;2.17;;;21.40;99.90;;;;;;5079210;28;20831;-77
2022/06/18 00:50:03;;;;;;;3.00;2.00;;;21.40;99.90;;;;;;5078322;28;20458;-78
2022/06/18 00:52:37;;;;;;;3.90;2.30;;;21.50;99.90;;;;;;5080604;28;20537;-79
2022/06/18 00:55:10;;;;;;;4.30;2.07;;;21.50;99.90;;;;;;5095164;28;20493;-79
2022/06/18 00:57:43;;;;;;;3.07;1.83;;;21.40;99.90;;;;;;5095899;28;20467;-80
2022/06/18 01:00:15;;;;;;;3.10;1.80;;;21.40;99.90;;;;;;5094215;28;20478;-79
2022/06/18 01:02:44;;;;;;;3.73;1.80;;;21.40;99.90;;;;;;5096010;28;20510;-78
2022/06/18 01:05:17;;;;;;;3.93;1.80;;;21.50;99.90;;;;;;5093386;28;20470;-80
2022/06/18 01:07:48;;;;;;;2.83;1.93;;;21.50;99.90;;;;;;5094430;28;20457;-79
2022/06/18 01:10:20;;;;;;;3.50;2.20;;;21.60;99.90;;;;;;5090714;28;20461;-79
2022/06/18 01:12:49;;;;;;;4.33;1.83;;;21.70;99.90;;;;;;5092461;28;20458;-78
2022/06/18 01:15:20;;;;;;;2.90;1.80;;;21.70;99.90;;;;;;5093707;28;20535;-79
2022/06/18 01:17:48;;;;;;;3.37;1.80;;;21.70;99.90;;;;;;5091256;28;20868;-79
2022/06/18 01:20:15;;;;;;;5.10;2.40;;;21.70;99.90;;;;;;5075471;28;20486;-79
2022/06/18 01:22:52;;;;;;;3.50;2.30;;;21.70;99.90;;;;;;5079252;28;20502;-79
2022/06/18 01:25:22;;;;;;;4.00;2.60;;;21.70;99.90;;;;;;5080133;28;20486;-79
2022/06/18 01:27:49;;;;;;;3.17;1.93;;;21.70;99.90;;;;;;5080396;28;20599;-79
2022/06/18 01:30:20;;;;;;;3.00;2.00;;;21.80;99.90;;;;;;5079658;28;20985;-79
2022/06/18 01:32:49;;;;;;;3.57;1.80;;;21.70;99.90;;;;;;5079260;28;20462;-79
2022/06/18 01:35:18;;;;;;;4.03;1.80;;;21.70;99.90;;;;;;5080307;28;20494;-80
2022/06/18 01:37:46;;;;;;;3.73;2.07;;;21.70;99.90;;;;;;5077098;28;20449;-79
2022/06/18 01:40:16;;;;;;;2.93;1.67;;;21.60;99.90;;;;;;5077245;28;20477;-79
2022/06/18 01:42:47;;;;;;;6.00;2.13;;;21.60;99.90;;;;;;5075817;28;20480;-79
2022/06/18 01:45:19;;;;;;;6.53;2.40;;;21.60;99.90;;;;;;5076381;28;20573;-79
2022/06/18 01:47:51;;;;;;;4.50;2.37;;;21.60;99.90;;;;;;5076206;28;20458;-78
2022/06/18 01:50:22;;;;;;;6.50;1.70;;;21.50;99.90;;;;;;5076481;28;20521;-80
2022/06/18 01:52:55;;;;;;;3.60;1.67;;;21.50;99.90;;;;;;5075852;28;20453;-80
2022/06/18 01:55:26;;;;;;;4.40;2.07;;;21.40;99.90;;;;;;5076055;28;20929;-78
2022/06/18 01:57:57;;;;;;;4.90;1.93;;;21.40;99.90;;;;;;5076070;28;21054;-78
2022/06/18 02:00:26;;;;;;;3.33;2.07;;;21.50;99.90;;;;;;5075773;28;20542;-77
2022/06/18 02:02:54;;;;;;;2.70;1.60;;;21.40;99.90;;;;;;5075013;28;20569;-79
2022/06/18 02:05:22;;;;;;;2.83;1.80;;;21.40;99.90;;;;;;5075897;28;20870;-77
2022/06/18 02:07:50;;;;;;;6.13;2.00;;;21.40;99.90;;;;;;5075657;28;20532;-79
2022/06/18 02:10:20;;;;;;;3.50;1.80;;;21.30;99.90;;;;;;5075745;28;20479;-79
2022/06/18 02:12:48;;;;;;;4.37;1.80;;;21.30;99.90;;;;;;5074918;28;20447;-78
2022/06/18 02:15:21;;;;;;;5.77;1.60;;;21.40;99.90;;;;;;5074911;28;20561;-77
2022/06/18 02:17:48;;;;;;;3.57;1.93;;;21.40;99.90;;;;;;5075525;28;20500;-78
2022/06/18 02:20:19;;;;;;;2.90;1.80;;;21.40;99.90;;;;;;5075115;28;20534;-79
2022/06/18 02:22:48;;;;;;;3.27;1.87;;;21.40;99.90;;;;;;5074697;28;21146;-78
2022/06/18 02:25:16;;;;;;;5.00;1.87;;;21.40;99.90;;;;;;5075386;28;20554;-79
2022/06/18 02:27:44;;;;;;;3.13;1.90;;;21.30;99.90;;;;;;5074386;28;21034;-79
2022/06/18 02:30:18;;;;;;;2.97;1.80;;;21.20;99.90;;;;;;5075557;28;20534;-79
2022/06/18 02:32:53;;;;;;;3.83;2.20;;;21.20;99.90;;;;;;5072968;28;20470;-78
2022/06/18 02:35:20;;;;;;;4.17;2.13;;;21.20;99.90;;;;;;5079741;28;20455;-79
2022/06/18 02:37:48;;;;;;;3.53;1.77;;;21.10;99.90;;;;;;5083902;28;20474;-77
2022/06/18 02:40:18;;;;;;;4.07;1.83;;;21.10;99.90;;;;;;5074748;28;20546;-79
2022/06/18 02:42:45;;;;;;;4.67;1.80;;;21.10;99.90;;;;;;5074549;28;20563;-80
2022/06/18 02:45:12;;;;;;;4.13;1.77;;;21.00;99.90;;;;;;5074393;28;20510;-78
2022/06/18 02:47:41;;;;;;;3.50;2.10;;;21.00;99.90;;;;;;5074818;28;20549;-79
2022/06/18 02:50:14;;;;;;;5.00;2.10;;;21.00;99.90;;;;;;5073916;28;20850;-78
2022/06/18 02:52:44;;;;;;;3.03;1.73;;;20.90;99.90;;;;;;5075058;28;20443;-80
2022/06/18 02:55:19;;;;;;;3.63;2.10;;;20.90;99.90;;;;;;5075436;28;20524;-80
2022/06/18 02:57:48;;;;;;;4.20;1.90;;;20.80;99.90;;;;;;5074881;28;20472;-79
2022/06/18 03:00:15;;;;;;;3.33;2.17;;;20.90;99.90;;;;;;5074526;28;20962;-79
2022/06/18 03:02:44;;;;;;;4.30;2.50;;;20.90;99.90;;;;;;5074048;28;20519;-79
2022/06/18 03:05:19;;;;;;;4.67;1.97;;;20.90;99.90;;;;;;5074337;28;20887;-80
2022/06/18 03:07:46;;;;;;;3.57;2.37;;;20.90;99.90;;;;;;5074683;28;20542;-79
2022/06/18 03:12:57;;;;;;;4.47;1.87;;;20.90;99.90;;;;;;5074399;28;20458;-79
2022/06/18 03:15:25;;;;;;;3.80;2.00;;;20.90;99.90;;;;;;5074321;28;20479;-79
2022/06/18 03:17:53;;;;;;;3.60;2.00;;;20.80;99.90;;;;;;5074448;28;20486;-77
2022/06/18 03:20:22;;;;;;;5.50;2.30;;;20.80;99.90;;;;;;5074715;28;20534;-77
2022/06/18 03:22:50;;;;;;;3.77;2.10;;;20.80;99.90;;;;;;5073612;28;20483;-77
2022/06/18 03:25:17;;;;;;;3.00;1.60;;;20.80;99.90;;;;;;5074749;28;20558;-78
2022/06/18 03:27:44;;;;;;;8.13;2.20;;;20.90;99.90;;;;;;5073230;28;20534;-76
2022/06/18 03:30:13;;;;;;;6.23;2.40;;;20.90;99.90;;;;;;5073523;28;20487;-80
2022/06/18 03:32:39;;;;;;;3.90;1.53;;;20.90;99.90;;;;;;5073725;28;20455;-79
2022/06/18 03:35:08;;;;;;;2.80;1.70;;;20.90;99.90;;;;;;5073771;28;20546;-79
2022/06/18 03:37:35;;;;;;;3.97;1.93;;;20.90;99.90;;;;;;5073755;28;20534;-79
2022/06/18 03:40:02;;;;;;;2.80;1.87;;;20.80;99.90;;;;;;5073954;28;20455;-78
2022/06/18 03:42:29;;;;;;;3.60;2.30;;;20.80;99.90;;;;;;5073340;28;20479;-78
2022/06/18 03:44:56;;;;;;;3.57;1.80;;;20.90;99.90;;;;;;5073670;28;21098;-78
2022/06/18 03:47:23;;;;;;;2.90;1.67;;;20.80;99.90;;;;;;5073999;28;20825;-77
2022/06/18 03:49:50;;;;;;;4.07;2.00;;;20.80;99.90;;;;;;5073412;28;20458;-81
2022/06/18 03:52:18;;;;;;;3.70;2.27;;;20.90;99.90;;;;;;5073006;28;20840;-77
2022/06/18 03:54:45;;;;;;;4.27;2.33;;;21.00;99.90;;;;;;5072508;28;20454;-77
2022/06/18 03:57:17;;;;;;;3.87;1.93;;;21.00;99.90;;;;;;5071968;28;20493;-79
2022/06/18 03:59:44;;;;;;;3.07;2.00;;;21.10;99.90;;;;;;5072273;28;20534;-78
2022/06/18 04:02:13;;;;;;;3.70;2.30;;;21.20;99.90;;;;;;5072028;28;20502;-78
2022/06/18 04:04:40;;;;;;;3.13;1.80;;;21.30;99.90;;;;;;5072016;28;20455;-78
2022/06/18 04:07:07;;;;;;;4.23;1.83;;;21.30;99.90;;;;;;5072176;28;20522;-79
2022/06/18 04:09:35;;;;;;;4.50;2.47;;;21.30;99.90;;;;;;5072956;28;20538;-77
2022/06/18 04:12:02;;;;;;;8.93;2.30;;;21.40;99.90;;;;;;5073231;28;20458;-77
2022/06/18 04:14:29;;;;;;;4.20;2.30;;;21.40;99.90;;;;;;5074855;28;20543;-79
2022/06/18 04:16:56;;;;;;;4.00;1.80;;;21.40;99.90;;;;;;5076312;28;20477;-81
2022/06/18 04:19:23;;;;;;;5.77;1.90;;;21.40;99.90;;;;;;5076877;28;21052;-82
2022/06/18 04:21:49;;;;;;;4.57;2.00;;;21.40;99.90;;;;;;5076684;28;20510;-82
2022/06/18 04:24:18;;;;;;;4.80;2.37;;;21.50;99.90;;;;;;5075584;28;20520;-82
2022/06/18 04:26:46;;;;;;;3.67;2.20;;;21.60;99.90;;;;;;5077189;28;20532;-82
2022/06/18 04:29:13;;;;;;;5.10;2.33;;;21.60;99.90;;;;;;5077716;28;20445;-82
2022/06/18 04:31:40;;;;;;;3.77;2.07;;;21.70;99.90;;;;;;5078084;28;20447;-82
2022/06/18 04:34:07;;;;;;;3.23;1.70;;;21.80;99.90;;;;;;5076748;28;20900;-81
2022/06/18 04:36:36;;;;;;;4.27;2.10;;;21.90;99.90;;;;;;5076515;28;20485;-82
2022/06/18 04:39:04;;;;;;;5.23;1.80;;;21.90;99.90;;;;;;5076346;28;21035;-82
2022/06/18 04:41:31;;;;;;;4.27;1.80;;;21.90;99.90;;;;;;5075663;28;20462;-82
2022/06/18 04:43:59;;;;;;;3.47;1.83;;;21.90;99.90;;;;;;5076629;28;20830;-82
2022/06/18 04:46:26;;;;;;;2.93;2.03;;;22.00;99.90;;;;;;5076395;28;20480;-82
2022/06/18 04:48:53;;;;;;;3.70;2.00;;;22.00;99.90;;;;;;5077052;28;20822;-81
2022/06/18 04:51:19;;;;;;;3.60;2.30;;;22.00;99.90;;;;;;5076549;28;20522;-82
2022/06/18 04:53:46;;;;;;;3.30;2.20;;;22.10;99.90;;;;;;5076861;28;20479;-82
2022/06/18 04:56:14;;;;;;;3.70;2.17;;;22.10;99.90;;;;;;5079748;28;20561;-80
2022/06/18 04:58:41;;;;;;;3.93;2.30;;;22.20;99.90;;;;;;5079114;28;20477;-81
2022/06/18 05:01:14;;;;;;;5.83;2.30;;;22.20;99.90;;;;;;5081942;28;20512;-78
2022/06/18 05:03:41;;;;;;;4.00;2.30;;;22.30;99.90;;;;;;5079419;28;20493;-81
2022/06/18 05:06:08;;;;;;;3.50;1.83;;;22.40;99.90;;;;;;5076904;28;20561;-78
2022/06/18 05:08:34;;;;;;;3.40;1.80;;;22.40;99.90;;;;;;5079976;28;20490;-80
2022/06/18 05:11:01;;;;;;;4.23;2.63;;;22.40;99.90;;;;;;5075049;28;20530;-79
2022/06/18 05:13:29;;;;;;;3.30;2.23;;;22.50;99.90;;;;;;5076053;28;20447;-79
2022/06/18 05:15:57;;;;;;;3.30;2.20;;;22.50;99.90;;;;;;5079192;28;20482;-79
2022/06/18 05:18:29;;;;;;;4.10;2.20;;;22.60;99.90;;;;;;5078473;28;20451;-81
2022/06/18 05:20:56;;;;;;;8.00;2.07;;;22.70;99.90;;;;;;5079574;28;20443;-81
2022/06/18 05:23:22;;;;;;;5.10;2.10;;;22.70;99.90;;;;;;5079921;28;20504;-80
2022/06/18 05:25:53;;;;;;;3.70;2.03;;;22.70;99.90;;;;;;5079689;28;20466;-80
2022/06/18 05:28:20;;;;;;;3.80;2.13;;;22.80;99.90;;;;;;5074370;28;20496;-79
2022/06/18 05:30:46;;;;;;;4.30;2.07;;;22.80;99.90;;;;;;5078793;28;20509;-80
2022/06/18 05:33:13;;;;;;;3.13;2.20;;;22.90;99.90;;;;;;5079497;28;20489;-80
2022/06/18 05:35:43;;;;;;;4.90;2.10;;;22.90;99.90;;;;;;5079084;28;20471;-80
2022/06/18 05:38:15;;;;;;;3.53;2.07;;;22.90;99.90;;;;;;5078026;28;20459;-80
2022/06/18 05:40:42;;;;;;;5.07;2.47;;;23.00;99.90;;;;;;5079460;28;20455;-80
2022/06/18 05:43:09;;;;;;;5.30;2.60;;;23.10;99.90;;;;;;5078943;28;20505;-79
2022/06/18 05:45:37;;;;;;;4.50;2.20;;;23.00;99.90;;;;;;5075711;28;20541;-80
2022/06/18 05:48:04;;;;;;;4.10;2.00;;;23.10;99.90;;;;;;5078480;28;20888;-82
2022/06/18 05:50:31;;;;;;;9.40;2.43;;;23.20;99.90;;;;;;5076081;28;20543;-82
2022/06/18 05:52:59;;;;;;;4.00;2.07;;;23.20;99.90;;;;;;5075953;28;20966;-81
2022/06/18 05:55:26;;;;;;;4.50;2.37;;;23.30;99.90;;;;;;5067196;28;21073;-79
2022/06/18 05:57:59;;;;;;;4.57;2.30;;;23.40;99.90;;;;;;5057212;28;21055;-79
2022/06/18 06:00:29;;;;;;;5.57;2.20;;;23.40;99.90;;;;;;5072153;28;20443;-78
2022/06/18 06:02:56;;;;;;;3.70;2.50;;;23.50;99.90;;;;;;5081547;28;20518;-78
2022/06/18 06:05:24;;;;;;;4.90;2.70;;;23.50;99.90;;;;;;5077958;28;20490;-80
2022/06/18 06:07:51;;;;;;;3.23;2.00;;;23.60;99.90;;;;;;5076208;28;20451;-79
2022/06/18 06:13:09;;;;;;;3.17;2.07;;;23.70;99.90;;;;;;5073895;28;20462;-79
2022/06/18 06:15:36;;;;;;;3.53;2.30;;;23.70;99.90;;;;;;5068992;28;20479;-81
2022/06/18 06:18:04;;;;;;;4.10;1.90;;;23.80;99.90;;;;;;5074960;28;20453;-79
2022/06/18 06:20:37;;;;;;;4.20;2.70;;;23.90;99.90;;;;;;5075625;28;20451;-77
2022/06/18 06:23:05;;;;;;;3.90;2.37;;;23.90;99.90;;;;;;5074222;28;20482;-83
2022/06/18 06:25:40;;;;;;;6.80;3.13;;;24.00;99.90;;;;;;5069982;28;20567;-78
2022/06/18 06:28:15;;;;;;;4.67;2.40;;;24.00;99.90;;;;;;5075694;28;20446;-77
2022/06/18 06:30:45;;;;;;;5.20;3.17;;;24.10;99.90;;;;;;5066189;28;20477;-80
2022/06/18 06:33:12;;;;;;;3.37;2.20;;;24.10;99.90;;;;;;5076824;28;20538;-80
2022/06/18 06:35:40;;;;;;;5.77;2.27;;;24.30;99.90;;;;;;5076915;28;20493;-81
2022/06/18 06:38:07;;;;;;;4.67;2.93;;;24.30;99.90;;;;;;5071311;28;20551;-78
2022/06/18 06:40:37;;;;;;;5.87;2.90;;;24.30;99.90;;;;;;5076703;28;20489;-80
2022/06/18 06:43:04;;;;;;;10.37;4.03;;;24.40;99.90;;;;;;5077679;28;20555;-79
2022/06/18 06:45:33;;;;;;;8.30;4.00;;;24.40;99.90;;;;;;5081290;28;21073;-78
2022/06/18 06:48:01;;;;;;;4.60;3.40;;;24.50;99.90;;;;;;5083647;28;20542;-81
2022/06/18 06:50:30;;;;;;;7.20;3.40;;;24.60;99.90;;;;;;5082943;28;20517;-81
2022/06/18 06:52:58;;;;;;;5.60;3.17;;;24.70;99.90;;;;;;5076732;28;20518;-79
2022/06/18 06:58:14;;;;;;;4.60;2.90;;;24.80;99.90;;;;;;5075151;28;20433;-80
2022/06/18 07:00:44;;;;;;;5.63;3.07;;;24.90;99.90;;;;;;5065975;28;20487;-80
2022/06/18 07:03:11;;;;;;;5.43;3.33;;;25.00;99.90;;;;;;5075452;28;20577;-80
2022/06/18 07:05:38;;;;;;;10.47;3.60;;;25.00;99.90;;;;;;5072286;28;20469;-80
2022/06/18 07:08:06;;;;;;;6.80;3.57;;;25.00;99.90;;;;;;5074131;28;20546;-80
2022/06/18 07:10:33;;;;;;;8.70;3.80;;;25.10;99.90;;;;;;5069581;28;20530;-80
2022/06/18 07:12:59;;;;;;;6.10;3.63;;;25.10;99.90;;;;;;5076427;28;20482;-77
2022/06/18 07:15:28;;;;;;;8.20;3.33;;;25.20;99.90;;;;;;5073796;28;20546;-76
2022/06/18 07:17:54;;;;;;;5.40;3.20;;;25.30;99.90;;;;;;5066820;28;20456;-77
2022/06/18 07:20:22;;;;;;;10.07;3.50;;;25.30;99.90;;;;;;5073940;28;20443;-79
2022/06/18 07:22:49;;;;;;;5.97;3.27;;;25.40;99.90;;;;;;5074730;28;20868;-79
2022/06/18 07:25:16;;;;;;;7.70;3.20;;;25.40;99.90;;;;;;5073561;28;20582;-79
2022/06/18 07:27:44;;;;;;;7.07;3.00;;;25.50;99.90;;;;;;5073213;28;20530;-78
2022/06/18 07:30:12;;;;;;;4.80;2.70;;;25.60;99.90;;;;;;5073524;28;20460;-78
2022/06/18 07:32:45;;;;;;;6.67;3.40;;;25.80;99.90;;;;;;5073365;28;20494;-79
2022/06/18 07:35:19;;;;;;;6.00;2.90;;;25.80;99.90;;;;;;5064681;28;20550;-81
2022/06/18 07:37:46;;;;;;;6.73;2.70;;;25.90;99.90;;;;;;5074249;28;20541;-79
2022/06/18 07:40:14;;;;;;;5.63;2.67;;;25.90;99.90;;;;;;5073694;28;20526;-79
2022/06/18 07:42:42;;;;;;;7.20;2.60;;;26.00;99.90;;;;;;5074086;28;20850;-79
2022/06/18 07:45:15;;;;;;;4.17;2.60;;;26.00;99.90;;;;;;5064530;28;20494;-80
2022/06/18 07:47:45;;;;;;;4.93;2.70;;;26.20;99.90;;;;;;5068191;28;20894;-81
2022/06/18 07:50:12;;;;;;;5.07;2.83;;;26.30;99.90;;;;;;5062731;28;20460;-79
2022/06/18 07:52:39;;;;;;;4.87;2.77;;;26.50;99.90;;;;;;5073126;28;20455;-79
2022/06/18 07:55:08;;;;;;;6.93;3.40;;;26.60;99.90;;;;;;5106996;22;21054;-81
2022/06/18 07:57:42;;;;;;;6.83;3.43;;;26.60;99.90;;;;;;5089037;28;20452;-81
2022/06/18 08:00:10;;;;;;;6.70;3.40;;;26.60;99.90;;;;;;5077062;28;20492;-79
2022/06/18 08:02:42;;;;;;;5.77;3.03;;;26.70;99.90;;;;;;5093483;28;20490;-82
2022/06/18 08:05:12;;;;;;;7.97;3.00;;;27.00;99.90;;;;;;5080524;28;21021;-82
2022/06/18 08:07:39;;;;;;;4.57;2.80;;;27.00;99.90;;;;;;5071054;28;20495;-81
2022/06/18 08:10:07;;;;;;;8.03;3.23;;;27.20;99.90;;;;;;5080414;28;20529;-82
2022/06/18 08:12:35;;;;;;;5.30;2.67;;;27.10;99.90;;;;;;5092866;28;20889;-81
2022/06/18 08:15:02;;;;;;;7.83;3.53;;;27.20;99.90;;;;;;5089409;28;20573;-82
2022/06/18 08:17:29;;;;;;;6.10;3.03;;;27.30;99.90;;;;;;5092823;28;20515;-81
2022/06/18 08:19:56;;;;;;;7.60;3.80;;;27.50;99.90;;;;;;5092667;28;20878;-82
2022/06/18 08:22:25;;;;;;;8.80;3.23;;;27.60;99.90;;;;;;5093275;28;21041;-81
2022/06/18 08:24:52;;;;;;;6.03;2.73;;;27.80;99.90;;;;;;5093113;28;20492;-82
2022/06/18 08:27:20;;;;;;;4.70;2.70;;;27.90;99.90;;;;;;5094116;28;20461;-80
2022/06/18 08:29:48;;;;;;;5.27;2.90;;;28.00;99.90;;;;;;5078140;28;20439;-80
2022/06/18 08:32:14;;;;;;;5.43;3.00;;;28.10;99.90;;;;;;5078530;28;20892;-82
2022/06/18 08:34:41;;;;;;;7.17;3.27;;;28.20;99.90;;;;;;5076737;28;20532;-81
2022/06/18 08:37:09;;;;;;;5.43;2.90;;;28.30;99.90;;;;;;5066825;28;20890;-82
2022/06/18 08:39:39;;;;;;;4.97;2.70;;;28.50;99.90;;;;;;5084470;28;20490;-79
2022/06/18 08:42:23;;;;;;;3.83;2.53;;;28.80;99.90;;;;;;5095773;28;20594;-79
2022/06/18 08:45:11;;;;;;;6.33;2.87;;;29.00;99.90;;;;;;5095245;28;20477;-80
2022/06/18 08:48:00;;;;;;;6.00;2.70;;;29.10;99.90;;;;;;5098690;28;20892;-80
2022/06/18 08:50:41;;;;;;;12.93;3.33;;;29.30;99.90;;;;;;5076708;28;20485;-83
2022/06/18 08:53:30;;;;;;;6.77;3.60;;;29.30;99.90;;;;;;5099257;28;20426;-80
2022/06/18 08:56:03;;;;;;;5.60;2.80;;;29.50;99.90;;;;;;5088261;28;20558;-81
2022/06/18 08:58:36;;;;;;;7.70;3.40;;;29.90;99.90;;;;;;5096878;28;20466;-80
2022/06/18 09:01:08;;;;;;;4.80;2.80;;;30.10;99.90;;;;;;5098350;28;20442;-80
2022/06/18 09:03:47;;;;;;;5.17;2.60;;;30.30;99.90;;;;;;5097835;28;20481;-79
2022/06/18 09:06:27;;;;;;;6.80;3.77;;;30.40;99.90;;;;;;5104682;28;20450;-80
2022/06/18 09:09:02;;;;;;;7.90;2.80;;;30.40;99.90;;;;;;5107894;28;20466;-83
2022/06/18 09:11:56;;;;;;;4.87;2.73;;;30.70;99.90;;;;;;5105074;28;20437;-81
2022/06/18 09:14:29;;;;;;;5.33;3.07;;;30.80;99.90;;;;;;5088817;28;20565;-81
2022/06/18 09:17:04;;;;;;;6.87;2.70;;;31.10;99.90;;;;;;5101188;28;20453;-81
2022/06/18 09:19:33;;;;;;;7.47;3.60;;;31.00;99.90;;;;;;5096338;28;20476;-81
2022/06/18 09:22:03;;;;;;;6.80;3.47;;;31.30;99.90;;;;;;5100764;28;20445;-80
2022/06/18 09:24:35;;;;;;;7.17;3.70;;;31.60;99.90;;;;;;5090098;28;21274;-82
2022/06/18 09:27:07;;;;;;;3.93;2.70;;;31.90;99.90;;;;;;5079938;28;20450;-82
2022/06/18 09:29:41;;;;;;;7.07;3.47;;;32.20;99.90;;;;;;5091017;28;20506;-83
2022/06/18 09:32:13;;;;;;;8.80;2.87;;;32.40;99.90;;;;;;5113324;28;20437;-83
2022/06/18 09:34:47;;;;;;;6.03;2.77;;;32.60;99.90;;;;;;5103588;28;20437;-81
2022/06/18 09:37:18;;;;;;;5.00;2.60;;;32.80;99.90;;;;;;5100131;28;20479;-82
2022/06/18 09:39:49;;;;;;;7.47;3.43;;;33.20;99.90;;;;;;5097250;28;20449;-80
2022/06/18 09:42:25;;;;;;;5.90;3.30;;;33.40;99.90;;;;;;5092241;28;20451;-80
2022/06/18 09:44:57;;;;;;;6.60;2.40;;;33.60;99.90;;;;;;5079683;28;20493;-82
2022/06/18 09:47:30;;;;;;;8.33;2.93;;;33.90;99.90;;;;;;5094067;28;20442;-82
2022/06/18 09:49:58;;;;;;;8.53;3.20;;;34.20;99.90;;;;;;5100461;28;20450;-81
2022/06/18 09:52:33;;;;;;;7.63;3.10;;;34.30;99.90;;;;;;5096165;28;20496;-80
2022/06/18 09:55:08;;;;;;;8.60;3.57;;;34.40;99.90;;;;;;5095976;28;20907;-80
2022/06/18 09:57:41;;;;;;;7.50;3.03;;;35.00;99.90;;;;;;5094881;28;20484;-81
2022/06/18 10:00:11;;;;;;;6.30;2.43;;;35.40;99.90;;;;;;5094852;28;20477;-79
2022/06/18 10:02:43;;;;;;;5.20;2.30;;;35.80;99.90;;;;;;5094207;28;20893;-83
2022/06/18 10:08:03;;;;;;;5.60;3.33;;;36.40;99.90;;;;;;5085279;28;20516;-83
2022/06/18 10:10:31;;;;;;;7.67;3.40;;;36.80;99.90;;;;;;5085340;28;20461;-81
2022/06/18 10:13:01;;;;;;;6.43;3.27;;;37.30;99.90;;;;;;5091272;28;20458;-83
2022/06/18 10:15:28;;;;;;;9.63;2.70;;;37.90;99.90;;;;;;5080908;28;20557;-82
2022/06/18 10:18:16;;;;;;;5.80;3.00;;;38.20;97.90;;;;;;5082998;28;20913;-83
2022/06/18 10:20:48;;;;;;;6.77;3.10;;;38.00;98.40;;;;;;5085430;28;20488;-82
2022/06/18 10:23:41;;;;;;;6.17;3.10;;;38.00;94.70;;;;;;5095734;28;20500;-82
2022/06/18 10:26:16;;;;;;;8.30;2.60;;;38.10;93.90;;;;;;5077688;28;20511;-81
2022/06/18 10:28:56;;;;;;;5.50;2.53;;;38.40;94.50;;;;;;5086619;28;20468;-82
2022/06/18 10:31:37;;;;;;;7.23;2.83;;;39.00;95.10;;;;;;5097225;28;20496;-81
2022/06/18 10:34:17;;;;;;;6.80;2.87;;;39.30;94.50;;;;;;5092457;28;20461;-83
2022/06/18 10:36:51;;;;;;;5.53;3.23;;;38.90;90.30;;;;;;5095617;28;20474;-80
2022/06/18 10:39:22;;;;;;;7.27;3.00;;;39.20;93.60;;;;;;5096266;28;20521;-80
2022/06/18 10:42:07;;;;;;;8.20;3.37;;;38.90;90.50;;;;;;5080465;28;20475;-81
2022/06/18 10:44:54;;;;;;;6.40;2.80;;;38.90;89.30;;;;;;5077675;28;20482;-82
2022/06/18 10:47:22;;;;;;;6.73;3.00;;;39.00;91.00;;;;;;5095601;28;20450;-81
2022/06/18 10:50:01;;;;;;;5.00;2.93;;;38.60;90.50;;;;;;5098488;28;20445;-83
2022/06/18 10:52:28;;;;;;;5.50;3.00;;;38.70;90.80;;;;;;5097401;28;20446;-81
2022/06/18 10:55:07;;;;;;;6.63;2.60;;;38.80;92.20;;;;;;5100362;28;20522;-83
2022/06/18 10:57:34;;;;;;;5.83;2.60;;;38.40;89.30;;;;;;5084530;28;20447;-80
2022/06/18 11:00:14;;;;;;;4.97;3.03;;;38.70;91.60;;;;;;5077264;28;20506;-84
2022/06/18 11:02:46;;;;;;;9.13;3.10;;;38.60;92.20;;;;;;5080990;28;20461;-81
2022/06/18 11:05:34;;;;;;;8.03;3.40;;;38.50;93.60;;;;;;5097085;28;20501;-81
2022/06/18 11:08:05;;;;;;;8.63;2.90;;;38.10;90.90;;;;;;5090753;28;20469;-84
2022/06/18 11:10:38;;;;;;;6.57;3.20;;;37.80;87.70;;;;;;5093264;28;20478;-83
2022/06/18 11:13:17;;;;;;;7.27;3.30;;;37.80;84.20;;;;;;5094588;28;20549;-84
2022/06/18 11:15:46;;;;;;;4.87;2.67;;;37.50;90.00;;;;;;5101003;28;21028;-81
2022/06/18 11:18:17;;;;;;;11.30;3.10;;;37.60;88.70;;;;;;5099539;28;20887;-82
2022/06/18 11:21:00;;;;;;;7.30;3.17;;;37.60;90.10;;;;;;5099230;28;20549;-82
2022/06/18 11:23:31;;;;;;;7.53;3.10;;;37.50;88.00;;;;;;5099097;28;20450;-82
2022/06/18 11:25:59;;;;;;;6.40;3.00;;;37.40;87.40;;;;;;5099539;28;20470;-83
2022/06/18 11:28:33;;;;;;;7.43;3.07;;;37.50;88.00;;;;;;5099100;28;20442;-82
2022/06/18 11:31:03;;;;;;;12.20;2.80;;;37.80;94.10;;;;;;5100282;28;20470;-82
2022/06/18 11:33:35;;;;;;;7.30;2.90;;;38.10;90.70;;;;;;5100931;28;20970;-82
2022/06/18 11:36:10;;;;;;;8.07;3.13;;;37.90;87.40;;;;;;5109470;28;20492;-82
2022/06/18 11:38:39;;;;;;;6.67;3.30;;;37.90;86.90;;;;;;5104914;28;20937;-83
2022/06/18 11:41:13;;;;;;;6.03;2.30;;;38.00;90.20;;;;;;5097595;28;20446;-82
2022/06/18 11:43:47;;;;;;;9.20;3.00;;;38.10;88.00;;;;;;5097058;28;20509;-83
2022/06/18 11:46:19;;;;;;;8.67;2.80;;;38.10;82.30;;;;;;5094602;28;20473;-82
2022/06/18 11:48:53;;;;;;;9.60;3.10;;;38.40;89.00;;;;;;5103968;28;20450;-82
2022/06/18 11:51:27;;;;;;;6.40;2.83;;;38.30;88.90;;;;;;5099059;28;20482;-82
2022/06/18 11:54:04;;;;;;;10.27;3.17;;;38.10;84.30;;;;;;5099023;28;20473;-82
2022/06/18 11:56:39;;;;;;;7.30;3.30;;;38.00;85.10;;;;;;5104033;28;20520;-82
2022/06/18 11:59:16;;;;;;;8.40;2.80;;;38.20;83.20;;;;;;5107289;28;20826;-82
2022/06/18 12:01:49;;;;;;;8.40;3.03;;;38.60;85.50;;;;;;5079382;28;20826;-82
2022/06/18 12:04:20;;;;;;;12.37;3.93;;;38.20;90.10;;;;;;5096161;28;20596;-82
2022/06/18 12:06:56;;;;;;;8.63;3.33;;;38.50;79.50;;;;;;5086829;28;20477;-83
2022/06/18 12:09:24;;;;;;;10.40;3.27;;;38.20;75.70;;;;;;5102043;28;20453;-81
2022/06/18 12:12:08;;;;;;;6.80;2.73;;;38.20;77.70;;;;;;5104499;28;20449;-81
2022/06/18 12:14:41;;;;;;;11.87;3.20;;;38.70;84.10;;;;;;5096724;28;20898;-82
2022/06/18 12:17:16;;;;;;;8.10;2.90;;;38.90;78.10;;;;;;5099638;28;20509;-82
2022/06/18 12:19:49;;;;;;;8.93;2.80;;;39.10;77.20;;;;;;5102304;28;20454;-82
2022/06/18 12:22:21;;;;;;;7.23;3.37;;;39.20;88.00;;;;;;5100732;28;20454;-81
2022/06/18 12:24:55;;;;;;;11.60;3.63;;;39.50;80.10;;;;;;5090597;28;20496;-82
2022/06/18 12:27:26;;;;;;;9.40;3.00;;;39.40;77.20;;;;;;5100763;28;20485;-82
2022/06/18 12:30:05;;;;;;;5.33;2.57;;;39.00;73.90;;;;;;5084743;28;20504;-83
2022/06/18 12:32:45;;;;;;;10.57;2.93;;;39.20;73.60;;;;;;5092763;28;20470;-84
2022/06/18 12:35:22;;;;;;;11.23;3.60;;;39.20;76.10;;;;;;5102688;28;20498;-84
2022/06/18 12:37:58;;;;;;;9.10;3.40;;;39.30;81.20;;;;;;5109013;28;20438;-86
2022/06/18 12:40:37;;;;;;;10.00;3.73;;;39.10;73.10;;;;;;5103220;28;20445;-84
2022/06/18 12:43:11;;;;;;;11.50;4.00;;;39.00;69.70;;;;;;5104151;28;20470;-84
2022/06/18 12:45:47;;;;;;;10.10;3.43;;;39.00;73.60;;;;;;5101618;28;20520;-83
2022/06/18 12:48:23;;;;;;;8.77;3.10;;;39.00;81.80;;;;;;5090424;28;20435;-83
2022/06/18 12:51:01;;;;;;;8.47;2.77;;;39.40;74.80;;;;;;5084128;28;20454;-85
2022/06/18 12:53:43;;;;;;;6.37;2.73;;;39.20;71.30;;;;;;5108369;28;20502;-85
2022/06/18 12:56:17;;;;;;;7.20;3.10;;;39.00;71.50;;;;;;5101957;28;20500;-84
2022/06/18 12:58:53;;;;;;;9.70;3.77;;;39.50;76.20;;;;;;5102711;28;20476;-84
2022/06/18 13:01:29;;;;;;;12.03;3.40;;;39.80;81.70;;;;;;5092021;28;20499;-85
2022/06/18 13:04:16;;;;;;;5.93;2.40;;;39.60;82.00;;;;;;5102064;28;20948;-83
2022/06/18 13:06:50;;;;;;;9.77;3.43;;;39.60;76.80;;;;;;5102977;28;20462;-83
2022/06/18 13:09:25;;;;;;;5.73;2.63;;;39.50;72.20;;;;;;5104414;28;20864;-83
2022/06/18 13:12:03;;;;;;;11.20;3.23;;;39.80;80.20;;;;;;5104705;28;20794;-82
2022/06/18 13:14:55;;;;;;;7.67;3.17;;;39.80;71.00;;;;;;5103202;28;20441;-84
2022/06/18 13:17:27;;;;;;;5.90;2.70;;;39.80;76.00;;;;;;5101991;28;20446;-85
2022/06/18 13:20:01;;;;;;;10.67;3.40;;;39.70;70.90;;;;;;5100844;28;20534;-85